sensor_id;sensor_type;location;lat;lon;timestamp;P1;durP1;ratioP1;P2;durP2;ratioP2
24799;SDS011;12897;50.812;4.430;2023-08-08T00:01:00;6.33;;;2.42;;
24799;SDS011;12897;50.812;4.430;2023-08-08T00:03:28;7.95;;;2.75;;
24799;SDS011;12897;50.812;4.430;2023-08-08T00:05:56;8.53;;;2.58;;
24799;SDS011;12897;50.812;4.430;2023-08-08T00:08:24;11.00;;;2.72;;
24799;SDS011;12897;50.812;4.430;2023-08-08T00:10:51;11.38;;;2.55;;
24799;SDS011;12897;50.812;4.430;2023-08-08T00:13:19;10.38;;;3.02;;
24799;SDS011;12897;50.812;4.430;2023-08-08T00:15:46;10.18;;;2.87;;
24799;SDS011;12897;50.812;4.430;2023-08-08T00:18:14;14.10;;;3.02;;
24799;SDS011;12897;50.812;4.430;2023-08-08T00:20:41;16.48;;;2.95;;
24799;SDS011;12897;50.812;4.430;2023-08-08T00:23:09;11.50;;;3.27;;
24799;SDS011;12897;50.812;4.430;2023-08-08T00:25:37;11.43;;;3.02;;
24799;SDS011;12897;50.812;4.430;2023-08-08T00:28:05;7.72;;;3.00;;
24799;SDS011;12897;50.812;4.430;2023-08-08T00:30:32;13.78;;;3.30;;
24799;SDS011;12897;50.812;4.430;2023-08-08T00:33:00;10.70;;;3.08;;
24799;SDS011;12897;50.812;4.430;2023-08-08T00:35:28;11.22;;;3.10;;
24799;SDS011;12897;50.812;4.430;2023-08-08T00:37:56;11.03;;;3.10;;
24799;SDS011;12897;50.812;4.430;2023-08-08T00:40:23;10.53;;;2.75;;
24799;SDS011;12897;50.812;4.430;2023-08-08T00:42:51;12.63;;;3.52;;
24799;SDS011;12897;50.812;4.430;2023-08-08T00:45:18;11.08;;;3.12;;
24799;SDS011;12897;50.812;4.430;2023-08-08T00:47:46;14.10;;;3.35;;
24799;SDS011;12897;50.812;4.430;2023-08-08T00:50:14;9.38;;;3.30;;
24799;SDS011;12897;50.812;4.430;2023-08-08T00:52:43;14.78;;;3.15;;
24799;SDS011;12897;50.812;4.430;2023-08-08T00:55:11;16.85;;;4.47;;
24799;SDS011;12897;50.812;4.430;2023-08-08T00:57:41;12.78;;;3.47;;
24799;SDS011;12897;50.812;4.430;2023-08-08T01:00:09;9.53;;;3.20;;
24799;SDS011;12897;50.812;4.430;2023-08-08T01:02:37;7.45;;;3.27;;
24799;SDS011;12897;50.812;4.430;2023-08-08T01:05:05;11.88;;;3.60;;
24799;SDS011;12897;50.812;4.430;2023-08-08T01:07:52;9.78;;;3.35;;
24799;SDS011;12897;50.812;4.430;2023-08-08T01:10:33;12.00;;;3.77;;
24799;SDS011;12897;50.812;4.430;2023-08-08T01:13:05;15.40;;;3.52;;
24799;SDS011;12897;50.812;4.430;2023-08-08T01:15:37;13.50;;;4.10;;
24799;SDS011;12897;50.812;4.430;2023-08-08T01:18:06;13.75;;;3.70;;
24799;SDS011;12897;50.812;4.430;2023-08-08T01:20:36;14.78;;;3.70;;
24799;SDS011;12897;50.812;4.430;2023-08-08T01:25:59;14.65;;;4.60;;
24799;SDS011;12897;50.812;4.430;2023-08-08T01:28:27;16.23;;;3.85;;
24799;SDS011;12897;50.812;4.430;2023-08-08T01:30:54;11.50;;;3.95;;
24799;SDS011;12897;50.812;4.430;2023-08-08T01:33:22;15.95;;;3.92;;
24799;SDS011;12897;50.812;4.430;2023-08-08T01:35:53;15.95;;;3.80;;
24799;SDS011;12897;50.812;4.430;2023-08-08T01:40:58;14.13;;;3.45;;
24799;SDS011;12897;50.812;4.430;2023-08-08T01:43:26;13.78;;;3.85;;
24799;SDS011;12897;50.812;4.430;2023-08-08T01:45:54;14.78;;;4.33;;
24799;SDS011;12897;50.812;4.430;2023-08-08T01:48:22;14.28;;;4.35;;
24799;SDS011;12897;50.812;4.430;2023-08-08T01:50:50;15.25;;;4.42;;
24799;SDS011;12897;50.812;4.430;2023-08-08T01:53:17;22.87;;;4.65;;
24799;SDS011;12897;50.812;4.430;2023-08-08T01:55:45;15.28;;;4.37;;
24799;SDS011;12897;50.812;4.430;2023-08-08T01:58:12;13.50;;;3.70;;
24799;SDS011;12897;50.812;4.430;2023-08-08T02:00:40;13.53;;;3.58;;
24799;SDS011;12897;50.812;4.430;2023-08-08T02:03:09;17.62;;;3.92;;
24799;SDS011;12897;50.812;4.430;2023-08-08T02:05:37;18.25;;;4.75;;
24799;SDS011;12897;50.812;4.430;2023-08-08T02:08:04;17.95;;;4.30;;
24799;SDS011;12897;50.812;4.430;2023-08-08T02:10:33;12.43;;;3.72;;
24799;SDS011;12897;50.812;4.430;2023-08-08T02:13:00;20.57;;;4.92;;
24799;SDS011;12897;50.812;4.430;2023-08-08T02:15:28;12.68;;;3.90;;
24799;SDS011;12897;50.812;4.430;2023-08-08T02:17:56;16.82;;;3.77;;
24799;SDS011;12897;50.812;4.430;2023-08-08T02:20:23;19.07;;;4.25;;
24799;SDS011;12897;50.812;4.430;2023-08-08T02:22:51;18.67;;;4.35;;
24799;SDS011;12897;50.812;4.430;2023-08-08T02:25:18;22.10;;;4.30;;
24799;SDS011;12897;50.812;4.430;2023-08-08T02:27:46;14.40;;;4.30;;
24799;SDS011;12897;50.812;4.430;2023-08-08T02:30:14;19.70;;;4.10;;
24799;SDS011;12897;50.812;4.430;2023-08-08T02:32:42;17.75;;;4.75;;
24799;SDS011;12897;50.812;4.430;2023-08-08T02:35:10;15.03;;;3.90;;
24799;SDS011;12897;50.812;4.430;2023-08-08T02:37:38;15.53;;;4.33;;
24799;SDS011;12897;50.812;4.430;2023-08-08T02:40:06;16.45;;;4.50;;
24799;SDS011;12897;50.812;4.430;2023-08-08T02:42:35;17.93;;;4.90;;
24799;SDS011;12897;50.812;4.430;2023-08-08T02:45:03;16.52;;;4.37;;
24799;SDS011;12897;50.812;4.430;2023-08-08T02:47:32;16.23;;;4.47;;
24799;SDS011;12897;50.812;4.430;2023-08-08T02:49:59;15.32;;;4.55;;
24799;SDS011;12897;50.812;4.430;2023-08-08T02:52:27;18.50;;;4.53;;
24799;SDS011;12897;50.812;4.430;2023-08-08T02:54:55;22.15;;;4.53;;
24799;SDS011;12897;50.812;4.430;2023-08-08T02:57:22;19.48;;;4.35;;
24799;SDS011;12897;50.812;4.430;2023-08-08T02:59:50;19.00;;;4.47;;
24799;SDS011;12897;50.812;4.430;2023-08-08T03:02:19;21.62;;;4.97;;
24799;SDS011;12897;50.812;4.430;2023-08-08T03:04:47;23.92;;;4.70;;
24799;SDS011;12897;50.812;4.430;2023-08-08T03:07:15;23.92;;;4.50;;
24799;SDS011;12897;50.812;4.430;2023-08-08T03:09:43;19.17;;;4.30;;
24799;SDS011;12897;50.812;4.430;2023-08-08T03:12:11;16.10;;;4.75;;
24799;SDS011;12897;50.812;4.430;2023-08-08T03:14:39;20.92;;;5.45;;
24799;SDS011;12897;50.812;4.430;2023-08-08T03:17:06;14.25;;;5.28;;
24799;SDS011;12897;50.812;4.430;2023-08-08T03:19:35;15.30;;;4.30;;
24799;SDS011;12897;50.812;4.430;2023-08-08T03:22:02;22.32;;;5.00;;
24799;SDS011;12897;50.812;4.430;2023-08-08T03:24:30;19.00;;;5.45;;
24799;SDS011;12897;50.812;4.430;2023-08-08T03:26:57;24.10;;;5.37;;
24799;SDS011;12897;50.812;4.430;2023-08-08T03:29:25;24.82;;;5.20;;
24799;SDS011;12897;50.812;4.430;2023-08-08T03:31:53;20.50;;;5.58;;
24799;SDS011;12897;50.812;4.430;2023-08-08T03:34:20;22.25;;;5.55;;
24799;SDS011;12897;50.812;4.430;2023-08-08T03:36:48;23.87;;;6.00;;
24799;SDS011;12897;50.812;4.430;2023-08-08T03:39:16;19.52;;;5.25;;
24799;SDS011;12897;50.812;4.430;2023-08-08T03:41:43;21.23;;;5.65;;
24799;SDS011;12897;50.812;4.430;2023-08-08T03:44:11;17.35;;;5.47;;
24799;SDS011;12897;50.812;4.430;2023-08-08T03:46:38;22.70;;;5.85;;
24799;SDS011;12897;50.812;4.430;2023-08-08T03:49:06;14.38;;;5.65;;
24799;SDS011;12897;50.812;4.430;2023-08-08T03:51:33;25.52;;;6.25;;
24799;SDS011;12897;50.812;4.430;2023-08-08T03:54:01;26.20;;;6.35;;
24799;SDS011;12897;50.812;4.430;2023-08-08T03:56:29;21.48;;;5.45;;
24799;SDS011;12897;50.812;4.430;2023-08-08T03:58:57;24.52;;;6.80;;
24799;SDS011;12897;50.812;4.430;2023-08-08T04:01:25;24.80;;;6.28;;
24799;SDS011;12897;50.812;4.430;2023-08-08T04:03:52;33.55;;;6.45;;
24799;SDS011;12897;50.812;4.430;2023-08-08T04:06:20;20.65;;;6.33;;
24799;SDS011;12897;50.812;4.430;2023-08-08T04:08:47;19.62;;;5.60;;
24799;SDS011;12897;50.812;4.430;2023-08-08T04:11:15;26.33;;;6.40;;
24799;SDS011;12897;50.812;4.430;2023-08-08T04:13:43;20.02;;;6.50;;
24799;SDS011;12897;50.812;4.430;2023-08-08T04:16:10;19.73;;;5.70;;
24799;SDS011;12897;50.812;4.430;2023-08-08T04:18:38;19.75;;;6.60;;
24799;SDS011;12897;50.812;4.430;2023-08-08T04:21:05;28.50;;;6.10;;
24799;SDS011;12897;50.812;4.430;2023-08-08T04:23:33;29.15;;;6.72;;
24799;SDS011;12897;50.812;4.430;2023-08-08T04:26:00;14.05;;;5.42;;
24799;SDS011;12897;50.812;4.430;2023-08-08T04:28:28;28.15;;;6.20;;
24799;SDS011;12897;50.812;4.430;2023-08-08T04:30:56;17.75;;;5.65;;
24799;SDS011;12897;50.812;4.430;2023-08-08T04:33:23;24.87;;;5.50;;
24799;SDS011;12897;50.812;4.430;2023-08-08T04:35:51;16.07;;;6.12;;
24799;SDS011;12897;50.812;4.430;2023-08-08T04:38:18;21.35;;;5.90;;
24799;SDS011;12897;50.812;4.430;2023-08-08T04:40:46;27.22;;;5.62;;
24799;SDS011;12897;50.812;4.430;2023-08-08T04:43:13;21.40;;;5.58;;
24799;SDS011;12897;50.812;4.430;2023-08-08T04:45:41;27.93;;;6.17;;
24799;SDS011;12897;50.812;4.430;2023-08-08T04:48:08;24.77;;;5.72;;
24799;SDS011;12897;50.812;4.430;2023-08-08T04:50:37;23.67;;;5.50;;
24799;SDS011;12897;50.812;4.430;2023-08-08T04:53:06;26.80;;;5.65;;
24799;SDS011;12897;50.812;4.430;2023-08-08T04:55:34;29.37;;;6.15;;
24799;SDS011;12897;50.812;4.430;2023-08-08T04:58:02;18.70;;;5.25;;
24799;SDS011;12897;50.812;4.430;2023-08-08T05:00:30;16.65;;;4.42;;
24799;SDS011;12897;50.812;4.430;2023-08-08T05:02:58;20.77;;;5.22;;
24799;SDS011;12897;50.812;4.430;2023-08-08T05:05:26;21.07;;;4.92;;
24799;SDS011;12897;50.812;4.430;2023-08-08T05:07:54;21.48;;;4.35;;
24799;SDS011;12897;50.812;4.430;2023-08-08T05:10:22;18.98;;;4.83;;
24799;SDS011;12897;50.812;4.430;2023-08-08T05:12:49;24.70;;;4.53;;
24799;SDS011;12897;50.812;4.430;2023-08-08T05:15:18;28.15;;;5.00;;
24799;SDS011;12897;50.812;4.430;2023-08-08T05:17:45;25.65;;;5.05;;
24799;SDS011;12897;50.812;4.430;2023-08-08T05:20:13;17.92;;;4.87;;
24799;SDS011;12897;50.812;4.430;2023-08-08T05:22:41;22.42;;;5.35;;
24799;SDS011;12897;50.812;4.430;2023-08-08T05:25:09;19.07;;;4.75;;
24799;SDS011;12897;50.812;4.430;2023-08-08T05:27:37;23.30;;;4.35;;
24799;SDS011;12897;50.812;4.430;2023-08-08T05:30:04;15.60;;;4.87;;
24799;SDS011;12897;50.812;4.430;2023-08-08T05:32:33;21.12;;;4.45;;
24799;SDS011;12897;50.812;4.430;2023-08-08T05:35:00;19.27;;;4.45;;
24799;SDS011;12897;50.812;4.430;2023-08-08T05:37:30;23.10;;;4.83;;
24799;SDS011;12897;50.812;4.430;2023-08-08T05:39:57;22.82;;;4.78;;
24799;SDS011;12897;50.812;4.430;2023-08-08T05:42:25;26.65;;;6.17;;
24799;SDS011;12897;50.812;4.430;2023-08-08T05:44:52;24.23;;;4.70;;
24799;SDS011;12897;50.812;4.430;2023-08-08T05:47:20;21.02;;;4.70;;
24799;SDS011;12897;50.812;4.430;2023-08-08T05:49:47;19.02;;;4.87;;
24799;SDS011;12897;50.812;4.430;2023-08-08T05:52:15;24.02;;;4.60;;
24799;SDS011;12897;50.812;4.430;2023-08-08T05:54:43;23.20;;;4.40;;
24799;SDS011;12897;50.812;4.430;2023-08-08T05:57:10;17.75;;;4.58;;
24799;SDS011;12897;50.812;4.430;2023-08-08T05:59:38;20.88;;;4.35;;
24799;SDS011;12897;50.812;4.430;2023-08-08T06:02:05;19.52;;;4.37;;
24799;SDS011;12897;50.812;4.430;2023-08-08T06:04:34;17.82;;;4.45;;
24799;SDS011;12897;50.812;4.430;2023-08-08T06:07:01;20.75;;;5.28;;
24799;SDS011;12897;50.812;4.430;2023-08-08T06:09:29;32.85;;;6.60;;
24799;SDS011;12897;50.812;4.430;2023-08-08T06:11:58;18.62;;;4.17;;
24799;SDS011;12897;50.812;4.430;2023-08-08T06:14:26;15.85;;;4.35;;
24799;SDS011;12897;50.812;4.430;2023-08-08T06:16:53;15.95;;;4.03;;
24799;SDS011;12897;50.812;4.430;2023-08-08T06:19:21;19.98;;;5.00;;
24799;SDS011;12897;50.812;4.430;2023-08-08T06:21:48;13.50;;;4.55;;
24799;SDS011;12897;50.812;4.430;2023-08-08T06:24:16;19.50;;;4.03;;
24799;SDS011;12897;50.812;4.430;2023-08-08T06:26:43;14.83;;;4.22;;
24799;SDS011;12897;50.812;4.430;2023-08-08T06:29:11;21.50;;;3.95;;
24799;SDS011;12897;50.812;4.430;2023-08-08T06:31:39;18.87;;;3.80;;
24799;SDS011;12897;50.812;4.430;2023-08-08T06:34:07;12.47;;;3.65;;
24799;SDS011;12897;50.812;4.430;2023-08-08T06:36:35;13.45;;;3.83;;
24799;SDS011;12897;50.812;4.430;2023-08-08T06:39:03;14.00;;;3.87;;
24799;SDS011;12897;50.812;4.430;2023-08-08T06:41:31;19.48;;;4.33;;
24799;SDS011;12897;50.812;4.430;2023-08-08T06:44:00;20.82;;;4.10;;
24799;SDS011;12897;50.812;4.430;2023-08-08T06:46:27;17.32;;;3.75;;
24799;SDS011;12897;50.812;4.430;2023-08-08T06:48:55;22.80;;;4.62;;
24799;SDS011;12897;50.812;4.430;2023-08-08T06:51:24;17.77;;;3.62;;
24799;SDS011;12897;50.812;4.430;2023-08-08T06:53:53;17.20;;;3.87;;
24799;SDS011;12897;50.812;4.430;2023-08-08T06:56:20;12.45;;;3.60;;
24799;SDS011;12897;50.812;4.430;2023-08-08T06:58:48;13.60;;;3.87;;
24799;SDS011;12897;50.812;4.430;2023-08-08T07:01:16;14.35;;;3.40;;
24799;SDS011;12897;50.812;4.430;2023-08-08T07:03:43;16.35;;;3.67;;
24799;SDS011;12897;50.812;4.430;2023-08-08T07:06:12;21.70;;;4.10;;
24799;SDS011;12897;50.812;4.430;2023-08-08T07:08:40;12.80;;;3.58;;
24799;SDS011;12897;50.812;4.430;2023-08-08T07:11:10;18.32;;;4.25;;
24799;SDS011;12897;50.812;4.430;2023-08-08T07:13:38;20.00;;;3.83;;
24799;SDS011;12897;50.812;4.430;2023-08-08T07:16:05;12.00;;;3.62;;
24799;SDS011;12897;50.812;4.430;2023-08-08T07:18:33;18.20;;;3.52;;
24799;SDS011;12897;50.812;4.430;2023-08-08T07:21:03;14.90;;;3.37;;
24799;SDS011;12897;50.812;4.430;2023-08-08T07:23:31;15.93;;;3.33;;
24799;SDS011;12897;50.812;4.430;2023-08-08T07:25:59;19.77;;;4.00;;
24799;SDS011;12897;50.812;4.430;2023-08-08T07:28:26;17.40;;;4.08;;
24799;SDS011;12897;50.812;4.430;2023-08-08T07:30:54;20.72;;;3.83;;
24799;SDS011;12897;50.812;4.430;2023-08-08T07:33:21;17.85;;;4.10;;
24799;SDS011;12897;50.812;4.430;2023-08-08T07:35:50;17.67;;;4.33;;
24799;SDS011;12897;50.812;4.430;2023-08-08T07:38:18;19.10;;;3.60;;
24799;SDS011;12897;50.812;4.430;2023-08-08T07:40:45;17.92;;;4.50;;
24799;SDS011;12897;50.812;4.430;2023-08-08T07:43:14;19.85;;;4.42;;
24799;SDS011;12897;50.812;4.430;2023-08-08T07:45:42;17.65;;;3.85;;
24799;SDS011;12897;50.812;4.430;2023-08-08T07:48:09;18.25;;;4.42;;
24799;SDS011;12897;50.812;4.430;2023-08-08T07:50:37;17.00;;;3.90;;
24799;SDS011;12897;50.812;4.430;2023-08-08T07:53:05;17.70;;;3.90;;
24799;SDS011;12897;50.812;4.430;2023-08-08T07:55:33;16.75;;;4.35;;
24799;SDS011;12897;50.812;4.430;2023-08-08T07:58:00;15.78;;;3.95;;
24799;SDS011;12897;50.812;4.430;2023-08-08T08:00:28;20.08;;;4.55;;
24799;SDS011;12897;50.812;4.430;2023-08-08T08:02:56;16.55;;;3.95;;
24799;SDS011;12897;50.812;4.430;2023-08-08T08:05:23;15.13;;;3.70;;
24799;SDS011;12897;50.812;4.430;2023-08-08T08:07:51;19.82;;;4.12;;
24799;SDS011;12897;50.812;4.430;2023-08-08T08:10:20;14.58;;;4.35;;
24799;SDS011;12897;50.812;4.430;2023-08-08T08:12:47;17.00;;;4.25;;
24799;SDS011;12897;50.812;4.430;2023-08-08T08:15:15;17.32;;;3.77;;
24799;SDS011;12897;50.812;4.430;2023-08-08T08:17:43;16.12;;;3.90;;
24799;SDS011;12897;50.812;4.430;2023-08-08T08:20:11;19.42;;;3.72;;
24799;SDS011;12897;50.812;4.430;2023-08-08T08:22:40;12.25;;;3.12;;
24799;SDS011;12897;50.812;4.430;2023-08-08T08:25:08;13.88;;;3.75;;
24799;SDS011;12897;50.812;4.430;2023-08-08T08:27:36;16.67;;;3.95;;
24799;SDS011;12897;50.812;4.430;2023-08-08T08:30:04;16.65;;;3.83;;
24799;SDS011;12897;50.812;4.430;2023-08-08T08:32:34;19.17;;;4.00;;
24799;SDS011;12897;50.812;4.430;2023-08-08T08:35:03;21.50;;;4.25;;
24799;SDS011;12897;50.812;4.430;2023-08-08T08:37:32;15.70;;;3.40;;
24799;SDS011;12897;50.812;4.430;2023-08-08T08:40:00;17.37;;;3.80;;
24799;SDS011;12897;50.812;4.430;2023-08-08T08:42:29;16.37;;;3.58;;
24799;SDS011;12897;50.812;4.430;2023-08-08T08:44:58;19.85;;;4.40;;
24799;SDS011;12897;50.812;4.430;2023-08-08T08:47:28;15.93;;;3.43;;
24799;SDS011;12897;50.812;4.430;2023-08-08T08:49:58;14.73;;;3.35;;
24799;SDS011;12897;50.812;4.430;2023-08-08T08:52:30;14.80;;;3.35;;
24799;SDS011;12897;50.812;4.430;2023-08-08T08:54:57;15.28;;;3.50;;
24799;SDS011;12897;50.812;4.430;2023-08-08T08:57:26;10.15;;;3.35;;
24799;SDS011;12897;50.812;4.430;2023-08-08T08:59:55;19.87;;;4.17;;
24799;SDS011;12897;50.812;4.430;2023-08-08T09:02:23;15.43;;;3.40;;
24799;SDS011;12897;50.812;4.430;2023-08-08T09:04:51;11.33;;;3.40;;
24799;SDS011;12897;50.812;4.430;2023-08-08T09:07:20;19.37;;;3.58;;
24799;SDS011;12897;50.812;4.430;2023-08-08T09:09:51;15.15;;;3.42;;
24799;SDS011;12897;50.812;4.430;2023-08-08T09:12:19;12.40;;;3.10;;
24799;SDS011;12897;50.812;4.430;2023-08-08T09:14:53;12.80;;;3.67;;
24799;SDS011;12897;50.812;4.430;2023-08-08T09:17:24;12.68;;;3.10;;
24799;SDS011;12897;50.812;4.430;2023-08-08T09:19:55;14.18;;;3.10;;
24799;SDS011;12897;50.812;4.430;2023-08-08T09:22:24;22.00;;;4.00;;
24799;SDS011;12897;50.812;4.430;2023-08-08T09:24:53;10.57;;;3.10;;
24799;SDS011;12897;50.812;4.430;2023-08-08T09:27:21;13.90;;;3.65;;
24799;SDS011;12897;50.812;4.430;2023-08-08T09:29:49;11.33;;;2.83;;
24799;SDS011;12897;50.812;4.430;2023-08-08T09:32:17;13.70;;;3.35;;
24799;SDS011;12897;50.812;4.430;2023-08-08T09:34:45;12.70;;;3.00;;
24799;SDS011;12897;50.812;4.430;2023-08-08T09:37:13;16.65;;;4.10;;
24799;SDS011;12897;50.812;4.430;2023-08-08T09:39:40;13.40;;;3.42;;
24799;SDS011;12897;50.812;4.430;2023-08-08T09:42:08;12.25;;;3.08;;
24799;SDS011;12897;50.812;4.430;2023-08-08T09:44:37;13.43;;;2.98;;
24799;SDS011;12897;50.812;4.430;2023-08-08T09:47:05;12.15;;;3.30;;
24799;SDS011;12897;50.812;4.430;2023-08-08T09:49:32;8.83;;;2.67;;
24799;SDS011;12897;50.812;4.430;2023-08-08T09:52:02;12.40;;;3.80;;
24799;SDS011;12897;50.812;4.430;2023-08-08T09:54:30;11.75;;;3.40;;
24799;SDS011;12897;50.812;4.430;2023-08-08T09:56:59;7.95;;;2.65;;
24799;SDS011;12897;50.812;4.430;2023-08-08T09:59:27;11.33;;;2.75;;
24799;SDS011;12897;50.812;4.430;2023-08-08T10:01:55;12.05;;;2.92;;
24799;SDS011;12897;50.812;4.430;2023-08-08T10:04:24;10.00;;;2.83;;
24799;SDS011;12897;50.812;4.430;2023-08-08T10:06:52;11.50;;;2.90;;
24799;SDS011;12897;50.812;4.430;2023-08-08T10:09:19;13.50;;;3.02;;
24799;SDS011;12897;50.812;4.430;2023-08-08T10:11:47;8.38;;;2.70;;
24799;SDS011;12897;50.812;4.430;2023-08-08T10:14:17;8.80;;;2.85;;
24799;SDS011;12897;50.812;4.430;2023-08-08T10:16:45;12.75;;;2.85;;
24799;SDS011;12897;50.812;4.430;2023-08-08T10:19:20;16.77;;;2.60;;
24799;SDS011;12897;50.812;4.430;2023-08-08T10:21:45;10.05;;;3.10;;
24799;SDS011;12897;50.812;4.430;2023-08-08T10:24:13;13.95;;;3.02;;
24799;SDS011;12897;50.812;4.430;2023-08-08T10:26:56;7.33;;;2.85;;
24799;SDS011;12897;50.812;4.430;2023-08-08T10:29:27;8.80;;;2.27;;
24799;SDS011;12897;50.812;4.430;2023-08-08T10:32:00;12.28;;;2.60;;
24799;SDS011;12897;50.812;4.430;2023-08-08T10:37:15;6.97;;;2.50;;
24799;SDS011;12897;50.812;4.430;2023-08-08T10:39:57;12.80;;;2.52;;
24799;SDS011;12897;50.812;4.430;2023-08-08T10:42:28;12.63;;;3.10;;
24799;SDS011;12897;50.812;4.430;2023-08-08T10:44:57;10.90;;;3.05;;
24799;SDS011;12897;50.812;4.430;2023-08-08T10:47:31;7.90;;;2.05;;
24799;SDS011;12897;50.812;4.430;2023-08-08T10:50:04;9.33;;;2.25;;
24799;SDS011;12897;50.812;4.430;2023-08-08T10:52:59;10.13;;;2.17;;
24799;SDS011;12897;50.812;4.430;2023-08-08T10:55:27;7.40;;;2.25;;
24799;SDS011;12897;50.812;4.430;2023-08-08T10:58:05;13.50;;;3.08;;
24799;SDS011;12897;50.812;4.430;2023-08-08T11:00:34;9.53;;;2.20;;
24799;SDS011;12897;50.812;4.430;2023-08-08T11:03:07;12.68;;;2.65;;
24799;SDS011;12897;50.812;4.430;2023-08-08T11:05:35;7.08;;;2.10;;
24799;SDS011;12897;50.812;4.430;2023-08-08T11:08:05;10.10;;;1.90;;
24799;SDS011;12897;50.812;4.430;2023-08-08T11:10:37;10.72;;;2.10;;
24799;SDS011;12897;50.812;4.430;2023-08-08T11:13:06;5.28;;;1.90;;
24799;SDS011;12897;50.812;4.430;2023-08-08T11:15:36;9.45;;;2.02;;
24799;SDS011;12897;50.812;4.430;2023-08-08T11:18:04;6.58;;;1.67;;
24799;SDS011;12897;50.812;4.430;2023-08-08T11:20:32;4.65;;;1.70;;
24799;SDS011;12897;50.812;4.430;2023-08-08T11:23:01;5.83;;;1.80;;
24799;SDS011;12897;50.812;4.430;2023-08-08T11:25:34;7.42;;;1.85;;
24799;SDS011;12897;50.812;4.430;2023-08-08T11:28:03;5.28;;;1.65;;
24799;SDS011;12897;50.812;4.430;2023-08-08T11:30:33;7.87;;;1.80;;
24799;SDS011;12897;50.812;4.430;2023-08-08T11:33:03;4.85;;;1.80;;
24799;SDS011;12897;50.812;4.430;2023-08-08T11:35:31;6.53;;;1.92;;
24799;SDS011;12897;50.812;4.430;2023-08-08T11:38:02;8.45;;;1.80;;
24799;SDS011;12897;50.812;4.430;2023-08-08T11:40:33;7.95;;;2.25;;
24799;SDS011;12897;50.812;4.430;2023-08-08T11:43:01;6.67;;;1.90;;
24799;SDS011;12897;50.812;4.430;2023-08-08T11:45:31;4.80;;;1.57;;
24799;SDS011;12897;50.812;4.430;2023-08-08T11:48:00;8.38;;;2.52;;
24799;SDS011;12897;50.812;4.430;2023-08-08T11:50:28;5.78;;;1.85;;
24799;SDS011;12897;50.812;4.430;2023-08-08T11:52:55;7.25;;;1.95;;
24799;SDS011;12897;50.812;4.430;2023-08-08T11:55:29;5.00;;;1.90;;
24799;SDS011;12897;50.812;4.430;2023-08-08T11:57:57;6.10;;;1.77;;
24799;SDS011;12897;50.812;4.430;2023-08-08T12:00:30;9.63;;;2.08;;
24799;SDS011;12897;50.812;4.430;2023-08-08T12:02:58;5.97;;;1.85;;
24799;SDS011;12897;50.812;4.430;2023-08-08T12:05:29;3.35;;;1.42;;
24799;SDS011;12897;50.812;4.430;2023-08-08T12:07:58;6.53;;;1.80;;
24799;SDS011;12897;50.812;4.430;2023-08-08T12:10:26;5.87;;;2.25;;
24799;SDS011;12897;50.812;4.430;2023-08-08T12:12:55;8.48;;;2.15;;
24799;SDS011;12897;50.812;4.430;2023-08-08T12:15:28;4.97;;;1.70;;
24799;SDS011;12897;50.812;4.430;2023-08-08T12:17:58;5.53;;;2.20;;
24799;SDS011;12897;50.812;4.430;2023-08-08T12:20:27;11.20;;;2.25;;
24799;SDS011;12897;50.812;4.430;2023-08-08T12:22:58;5.70;;;1.65;;
24799;SDS011;12897;50.812;4.430;2023-08-08T12:25:26;8.33;;;2.40;;
24799;SDS011;12897;50.812;4.430;2023-08-08T12:27:55;5.05;;;2.00;;
24799;SDS011;12897;50.812;4.430;2023-08-08T12:30:25;8.35;;;1.90;;
24799;SDS011;12897;50.812;4.430;2023-08-08T12:33:02;7.95;;;2.22;;
24799;SDS011;12897;50.812;4.430;2023-08-08T12:35:30;7.75;;;2.40;;
24799;SDS011;12897;50.812;4.430;2023-08-08T12:37:57;7.78;;;2.20;;
24799;SDS011;12897;50.812;4.430;2023-08-08T12:40:25;6.70;;;2.35;;
24799;SDS011;12897;50.812;4.430;2023-08-08T12:42:52;8.40;;;2.15;;
24799;SDS011;12897;50.812;4.430;2023-08-08T12:45:22;5.30;;;1.67;;
24799;SDS011;12897;50.812;4.430;2023-08-08T12:47:49;8.23;;;2.55;;
24799;SDS011;12897;50.812;4.430;2023-08-08T12:50:17;5.60;;;1.80;;
24799;SDS011;12897;50.812;4.430;2023-08-08T12:52:45;5.65;;;1.80;;
24799;SDS011;12897;50.812;4.430;2023-08-08T12:55:12;7.50;;;1.60;;
24799;SDS011;12897;50.812;4.430;2023-08-08T12:57:44;6.28;;;1.72;;
24799;SDS011;12897;50.812;4.430;2023-08-08T13:00:11;8.23;;;1.77;;
24799;SDS011;12897;50.812;4.430;2023-08-08T13:02:40;4.70;;;2.20;;
24799;SDS011;12897;50.812;4.430;2023-08-08T13:05:07;7.30;;;1.90;;
24799;SDS011;12897;50.812;4.430;2023-08-08T13:07:36;6.78;;;1.80;;
24799;SDS011;12897;50.812;4.430;2023-08-08T13:10:04;6.70;;;1.92;;
24799;SDS011;12897;50.812;4.430;2023-08-08T13:12:32;7.00;;;2.10;;
24799;SDS011;12897;50.812;4.430;2023-08-08T13:14:59;4.87;;;1.77;;
24799;SDS011;12897;50.812;4.430;2023-08-08T13:17:27;4.42;;;1.55;;
24799;SDS011;12897;50.812;4.430;2023-08-08T13:19:54;4.55;;;1.98;;
24799;SDS011;12897;50.812;4.430;2023-08-08T13:22:22;5.20;;;1.80;;
24799;SDS011;12897;50.812;4.430;2023-08-08T13:24:49;5.12;;;1.50;;
24799;SDS011;12897;50.812;4.430;2023-08-08T13:27:17;3.80;;;1.45;;
24799;SDS011;12897;50.812;4.430;2023-08-08T13:29:44;8.60;;;1.77;;
24799;SDS011;12897;50.812;4.430;2023-08-08T13:32:12;5.20;;;1.40;;
24799;SDS011;12897;50.812;4.430;2023-08-08T13:34:39;4.75;;;1.50;;
24799;SDS011;12897;50.812;4.430;2023-08-08T13:37:07;4.12;;;1.72;;
24799;SDS011;12897;50.812;4.430;2023-08-08T13:39:35;4.00;;;1.70;;
24799;SDS011;12897;50.812;4.430;2023-08-08T13:42:02;3.70;;;1.40;;
24799;SDS011;12897;50.812;4.430;2023-08-08T13:44:30;3.98;;;1.52;;
24799;SDS011;12897;50.812;4.430;2023-08-08T13:46:57;3.67;;;1.52;;
24799;SDS011;12897;50.812;4.430;2023-08-08T13:49:26;4.92;;;1.60;;
24799;SDS011;12897;50.812;4.430;2023-08-08T13:51:53;4.00;;;1.50;;
24799;SDS011;12897;50.812;4.430;2023-08-08T13:54:21;2.92;;;1.57;;
24799;SDS011;12897;50.812;4.430;2023-08-08T13:56:49;4.08;;;1.65;;
24799;SDS011;12897;50.812;4.430;2023-08-08T13:59:17;9.53;;;1.60;;
24799;SDS011;12897;50.812;4.430;2023-08-08T14:01:44;5.30;;;1.67;;
24799;SDS011;12897;50.812;4.430;2023-08-08T14:04:12;2.92;;;1.85;;
24799;SDS011;12897;50.812;4.430;2023-08-08T14:06:39;8.65;;;1.67;;
24799;SDS011;12897;50.812;4.430;2023-08-08T14:09:07;5.05;;;1.65;;
24799;SDS011;12897;50.812;4.430;2023-08-08T14:11:35;3.25;;;1.65;;
24799;SDS011;12897;50.812;4.430;2023-08-08T14:14:02;6.60;;;1.62;;
24799;SDS011;12897;50.812;4.430;2023-08-08T14:16:30;5.05;;;2.02;;
24799;SDS011;12897;50.812;4.430;2023-08-08T14:18:58;5.17;;;1.67;;
24799;SDS011;12897;50.812;4.430;2023-08-08T14:21:25;5.45;;;1.95;;
24799;SDS011;12897;50.812;4.430;2023-08-08T14:23:53;6.25;;;2.00;;
24799;SDS011;12897;50.812;4.430;2023-08-08T14:26:20;5.42;;;1.75;;
24799;SDS011;12897;50.812;4.430;2023-08-08T14:28:49;5.50;;;1.62;;
24799;SDS011;12897;50.812;4.430;2023-08-08T14:31:16;2.70;;;1.37;;
24799;SDS011;12897;50.812;4.430;2023-08-08T14:33:44;5.97;;;1.85;;
24799;SDS011;12897;50.812;4.430;2023-08-08T14:36:11;4.55;;;1.42;;
24799;SDS011;12897;50.812;4.430;2023-08-08T14:38:39;4.17;;;1.30;;
24799;SDS011;12897;50.812;4.430;2023-08-08T14:41:07;6.08;;;1.67;;
24799;SDS011;12897;50.812;4.430;2023-08-08T14:43:36;3.55;;;1.20;;
24799;SDS011;12897;50.812;4.430;2023-08-08T14:46:03;3.95;;;1.30;;
24799;SDS011;12897;50.812;4.430;2023-08-08T14:48:31;4.87;;;1.60;;
24799;SDS011;12897;50.812;4.430;2023-08-08T14:51:03;5.45;;;1.85;;
24799;SDS011;12897;50.812;4.430;2023-08-08T14:53:29;5.70;;;1.67;;